Time;durP1;ratioP1;P1;durP2;ratioP2;P2;SDS_P1;SDS_P2;PMS_P1;PMS_P2;Temp;Humidity;BMP_temperature;BMP_pressure;BME280_temperature;BME280_humidity;BME280_pressure;Samples;Min_cycle;Max_cycle;Signal;HPM_P1;HPM_P2
2021/10/15 00:00:25;;;;;;;8.15;4.47;;;;;;;;;;4999797;28;20074;-74
2021/10/15 00:02:50;;;;;;;6.68;4.10;;;;;;;;;;4996052;28;20022;-74
2021/10/15 00:05:16;;;;;;;6.47;4.10;;;;;;;;;;5002497;28;20077;-75
2021/10/15 00:07:41;;;;;;;7.15;4.60;;;;;;;;;;4996029;28;20386;-75
2021/10/15 00:10:06;;;;;;;7.30;4.72;;;;;;;;;;4995768;28;20026;-75
2021/10/15 00:12:32;;;;;;;9.82;4.55;;;;;;;;;;4993005;28;20026;-76
2021/10/15 00:14:57;;;;;;;9.20;4.45;;;;;;;;;;5007384;28;20042;-74
2021/10/15 00:17:22;;;;;;;7.20;4.65;;;;;;;;;;4997099;28;20121;-73
2021/10/15 00:19:47;;;;;;;6.47;3.97;;;;;;;;;;4998174;28;20080;-76
2021/10/15 00:22:14;;;;;;;5.43;4.07;;;;;;;;;;5000516;28;20030;-75
2021/10/15 00:24:39;;;;;;;6.30;3.78;;;;;;;;;;5002837;28;20073;-74
2021/10/15 00:27:04;;;;;;;6.18;4.00;;;;;;;;;;4996967;28;20022;-75
2021/10/15 00:29:29;;;;;;;5.68;3.90;;;;;;;;;;5004026;28;20369;-75
2021/10/15 00:31:54;;;;;;;6.47;3.92;;;;;;;;;;5009021;28;20041;-77
2021/10/15 00:34:20;;;;;;;6.85;4.32;;;;;;;;;;5000919;28;20032;-75
2021/10/15 00:36:45;;;;;;;7.03;4.70;;;;;;;;;;5006492;28;20034;-76
2021/10/15 00:39:10;;;;;;;6.75;4.05;;;;;;;;;;4997034;28;20105;-76
2021/10/15 00:41:35;;;;;;;6.25;4.07;;;;;;;;;;5020709;28;20077;-75
2021/10/15 00:44:02;;;;;;;6.63;4.07;;;;;;;;;;5003772;28;20390;-75
2021/10/15 00:46:27;;;;;;;7.25;4.35;;;;;;;;;;5003708;28;20030;-75
2021/10/15 00:48:52;;;;;;;6.72;4.03;;;;;;;;;;5006677;28;20049;-75
2021/10/15 00:51:18;;;;;;;6.20;3.92;;;;;;;;;;5001755;28;20060;-75
2021/10/15 00:53:43;;;;;;;7.82;3.78;;;;;;;;;;4998947;28;20030;-75
2021/10/15 00:56:09;;;;;;;6.15;3.22;;;;;;;;;;4995799;28;20478;-76
2021/10/15 00:58:34;;;;;;;5.45;3.50;;;;;;;;;;5002759;28;20206;-75
2021/10/15 01:00:59;;;;;;;6.03;3.42;;;;;;;;;;5005256;28;20117;-75
2021/10/15 01:03:24;;;;;;;5.13;3.40;;;;;;;;;;4995816;28;20022;-75
2021/10/15 01:05:49;;;;;;;5.55;3.70;;;;;;;;;;5002242;28;20018;-76
2021/10/15 01:08:14;;;;;;;4.55;3.00;;;;;;;;;;5004072;28;20505;-74
2021/10/15 01:10:40;;;;;;;6.95;3.90;;;;;;;;;;5002809;28;20105;-76
2021/10/15 01:13:05;;;;;;;5.72;3.55;;;;;;;;;;4997345;28;20729;-75
2021/10/15 01:15:30;;;;;;;5.82;3.95;;;;;;;;;;4996926;28;20116;-75
2021/10/15 01:17:55;;;;;;;6.47;3.50;;;;;;;;;;5009553;28;20030;-75
2021/10/15 01:20:21;;;;;;;7.05;3.75;;;;;;;;;;5005004;28;20465;-75
2021/10/15 01:22:46;;;;;;;6.10;3.58;;;;;;;;;;5005095;28;20080;-75
2021/10/15 01:25:11;;;;;;;5.60;3.55;;;;;;;;;;5005515;28;20956;-76
2021/10/15 01:27:36;;;;;;;6.38;3.72;;;;;;;;;;5000351;28;20097;-75
2021/10/15 01:30:02;;;;;;;4.70;3.58;;;;;;;;;;4996416;28;20128;-75
2021/10/15 01:32:27;;;;;;;5.30;3.45;;;;;;;;;;4999171;28;20029;-75
2021/10/15 01:34:52;;;;;;;6.35;3.70;;;;;;;;;;5007658;28;20542;-75
2021/10/15 01:37:17;;;;;;;6.15;3.78;;;;;;;;;;5001722;28;20034;-76
2021/10/15 01:39:43;;;;;;;7.93;3.90;;;;;;;;;;5005700;28;20033;-75
2021/10/15 01:42:53;;;;;;;5.35;3.95;;;;;;;;;;5006276;28;20443;-75
2021/10/15 01:44:53;;;;;;;7.88;4.55;;;;;;;;;;5005577;28;20045;-74
2021/10/15 01:47:18;;;;;;;5.70;3.70;;;;;;;;;;5018958;28;20025;-76
2021/10/15 01:49:43;;;;;;;6.90;3.90;;;;;;;;;;4995469;28;20038;-75
2021/10/15 01:52:09;;;;;;;8.45;4.18;;;;;;;;;;5002122;28;20027;-75
2021/10/15 01:54:34;;;;;;;6.05;3.65;;;;;;;;;;4990867;28;20045;-75
2021/10/15 01:56:59;;;;;;;6.15;3.60;;;;;;;;;;5000811;28;20039;-75
2021/10/15 01:59:24;;;;;;;5.95;3.90;;;;;;;;;;4997652;28;20042;-76
2021/10/15 02:01:49;;;;;;;5.90;3.75;;;;;;;;;;4997154;28;20080;-74
2021/10/15 02:04:14;;;;;;;4.85;3.50;;;;;;;;;;4997024;28;20535;-74
2021/10/15 02:06:40;;;;;;;5.22;3.58;;;;;;;;;;4994190;28;20037;-75
2021/10/15 02:09:05;;;;;;;6.25;3.50;;;;;;;;;;4992942;28;20101;-74
2021/10/15 02:11:31;;;;;;;5.72;3.90;;;;;;;;;;4996444;28;20172;-75
2021/10/15 02:13:56;;;;;;;6.22;3.40;;;;;;;;;;4991029;28;20022;-75
2021/10/15 02:16:21;;;;;;;6.57;3.83;;;;;;;;;;5000126;28;20038;-74
2021/10/15 02:18:46;;;;;;;5.55;3.50;;;;;;;;;;5003279;28;20512;-74
2021/10/15 02:21:11;;;;;;;5.60;3.28;;;;;;;;;;4997334;28;20079;-76
2021/10/15 02:23:37;;;;;;;5.90;3.50;;;;;;;;;;5001075;28;20484;-75
2021/10/15 02:26:02;;;;;;;5.90;3.47;;;;;;;;;;4994085;28;20045;-74
2021/10/15 02:28:27;;;;;;;6.28;3.60;;;;;;;;;;4995457;28;20030;-75
2021/10/15 02:30:52;;;;;;;6.22;3.20;;;;;;;;;;4998552;28;20132;-75
2021/10/15 02:33:17;;;;;;;7.13;3.33;;;;;;;;;;4998540;28;20029;-75
2021/10/15 02:35:43;;;;;;;4.97;2.92;;;;;;;;;;5000648;28;20045;-75
2021/10/15 02:38:08;;;;;;;5.00;3.10;;;;;;;;;;4994831;28;20023;-75
2021/10/15 02:40:33;;;;;;;4.80;3.10;;;;;;;;;;4999734;28;20026;-75
2021/10/15 02:42:58;;;;;;;4.90;3.00;;;;;;;;;;4997331;28;20045;-76
2021/10/15 02:45:23;;;;;;;5.53;3.00;;;;;;;;;;4992368;28;20080;-74
2021/10/15 02:47:49;;;;;;;3.88;2.30;;;;;;;;;;5005539;28;20033;-74
2021/10/15 02:50:14;;;;;;;6.47;3.00;;;;;;;;;;4998082;28;20034;-76
2021/10/15 02:52:39;;;;;;;4.63;3.17;;;;;;;;;;5002500;28;20092;-74
2021/10/15 02:55:05;;;;;;;4.45;2.95;;;;;;;;;;5002470;28;20044;-76
2021/10/15 02:57:30;;;;;;;4.47;2.72;;;;;;;;;;4995842;28;20128;-75
2021/10/15 02:59:56;;;;;;;5.90;3.00;;;;;;;;;;5004495;28;20068;-75
2021/10/15 03:02:21;;;;;;;5.57;3.10;;;;;;;;;;5004692;28;20117;-76
2021/10/15 03:04:46;;;;;;;6.75;3.08;;;;;;;;;;4995493;28;20378;-76
2021/10/15 03:07:11;;;;;;;4.97;2.88;;;;;;;;;;5001489;28;20018;-78
2021/10/15 03:09:36;;;;;;;4.15;2.53;;;;;;;;;;4995993;28;20031;-75
2021/10/15 03:12:02;;;;;;;4.65;2.55;;;;;;;;;;5000034;28;20896;-76
2021/10/15 03:14:27;;;;;;;4.53;2.97;;;;;;;;;;4999031;28;20028;-77
2021/10/15 03:16:52;;;;;;;5.15;3.00;;;;;;;;;;4996078;28;20128;-77
2021/10/15 03:19:17;;;;;;;5.15;2.97;;;;;;;;;;5001971;28;20033;-78
2021/10/15 03:21:43;;;;;;;4.35;2.90;;;;;;;;;;4995868;28;20540;-78
2021/10/15 03:24:08;;;;;;;4.25;2.70;;;;;;;;;;5000880;28;20437;-77
2021/10/15 03:26:33;;;;;;;4.97;2.72;;;;;;;;;;4998619;28;20480;-77
2021/10/15 03:28:58;;;;;;;4.07;2.70;;;;;;;;;;4997244;28;20548;-77
2021/10/15 03:31:23;;;;;;;4.53;2.40;;;;;;;;;;4994611;28;20046;-77
2021/10/15 03:33:49;;;;;;;3.92;2.42;;;;;;;;;;4997404;28;20057;-77
2021/10/15 03:36:14;;;;;;;6.32;3.20;;;;;;;;;;4992641;28;20113;-77
2021/10/15 03:38:39;;;;;;;5.63;3.17;;;;;;;;;;4997150;28;20034;-76
2021/10/15 03:41:04;;;;;;;4.10;2.45;;;;;;;;;;4994832;28;20037;-76
2021/10/15 03:43:29;;;;;;;4.05;2.40;;;;;;;;;;4996010;28;20026;-78
2021/10/15 03:45:54;;;;;;;3.50;2.50;;;;;;;;;;4996885;28;20117;-77
2021/10/15 03:48:20;;;;;;;4.57;2.42;;;;;;;;;;5004076;28;20089;-77
2021/10/15 03:50:45;;;;;;;3.72;2.45;;;;;;;;;;5007208;28;20034;-78
2021/10/15 03:53:10;;;;;;;3.63;2.47;;;;;;;;;;4997771;28;20033;-77
2021/10/15 03:55:35;;;;;;;3.40;2.10;;;;;;;;;;5007945;28;20038;-76
2021/10/15 03:58:00;;;;;;;3.95;2.35;;;;;;;;;;5005127;28;20470;-77
2021/10/15 04:00:26;;;;;;;6.15;2.45;;;;;;;;;;5001499;28;20831;-76
2021/10/15 04:02:51;;;;;;;4.18;2.50;;;;;;;;;;5009937;28;20421;-76
2021/10/15 04:05:16;;;;;;;4.07;2.63;;;;;;;;;;4999490;28;20041;-78
2021/10/15 04:07:41;;;;;;;4.35;2.60;;;;;;;;;;5004267;28;20394;-78
2021/10/15 04:10:07;;;;;;;4.70;2.58;;;;;;;;;;5000370;28;20041;-78
2021/10/15 04:12:33;;;;;;;4.72;2.63;;;;;;;;;;5001332;28;20561;-77
2021/10/15 04:14:59;;;;;;;4.05;2.53;;;;;;;;;;4996907;28;20038;-77
2021/10/15 04:17:24;;;;;;;5.47;3.20;;;;;;;;;;5002382;28;20522;-77
2021/10/15 04:19:49;;;;;;;7.47;3.55;;;;;;;;;;5001328;28;20036;-76
2021/10/15 04:22:15;;;;;;;4.40;2.78;;;;;;;;;;5002953;28;20057;-77
2021/10/15 04:24:40;;;;;;;4.88;2.92;;;;;;;;;;4995090;28;20022;-76
2021/10/15 04:27:06;;;;;;;5.30;2.80;;;;;;;;;;5003384;28;20087;-77
2021/10/15 04:29:31;;;;;;;4.75;2.53;;;;;;;;;;4999180;28;20045;-76
2021/10/15 04:31:56;;;;;;;5.30;2.80;;;;;;;;;;4995237;28;20394;-76
2021/10/15 04:34:21;;;;;;;4.18;2.47;;;;;;;;;;5008462;28;20021;-77
2021/10/15 04:36:46;;;;;;;7.07;2.65;;;;;;;;;;4999423;28;20030;-77
2021/10/15 04:39:11;;;;;;;7.68;3.10;;;;;;;;;;5001431;28;20489;-76
2021/10/15 04:41:37;;;;;;;6.65;3.63;;;;;;;;;;4997481;28;20026;-76
2021/10/15 04:44:02;;;;;;;5.30;2.88;;;;;;;;;;5007593;28;20018;-77
2021/10/15 04:46:27;;;;;;;5.07;2.67;;;;;;;;;;4996469;28;20030;-77
2021/10/15 04:48:53;;;;;;;7.13;3.38;;;;;;;;;;5005403;28;20034;-77
2021/10/15 04:51:18;;;;;;;5.68;3.10;;;;;;;;;;5002796;28;20466;-77
2021/10/15 04:53:43;;;;;;;6.55;3.40;;;;;;;;;;4996601;28;20088;-77
2021/10/15 04:56:08;;;;;;;5.82;3.28;;;;;;;;;;5000109;28;20610;-75
2021/10/15 04:58:34;;;;;;;5.32;3.30;;;;;;;;;;5008168;28;20346;-75
2021/10/15 05:00:59;;;;;;;7.40;3.30;;;;;;;;;;5004999;28;20068;-75
2021/10/15 05:03:24;;;;;;;4.68;2.92;;;;;;;;;;4997074;28;20061;-75
2021/10/15 05:05:49;;;;;;;5.15;2.80;;;;;;;;;;4996818;28;20414;-76
2021/10/15 05:08:16;;;;;;;4.43;2.60;;;;;;;;;;5003570;28;20027;-76
2021/10/15 05:10:42;;;;;;;5.32;2.50;;;;;;;;;;4995708;28;20027;-77
2021/10/15 05:13:07;;;;;;;7.70;2.83;;;;;;;;;;5006967;28;20029;-77
2021/10/15 05:15:32;;;;;;;4.22;2.95;;;;;;;;;;5004095;28;20402;-76
2021/10/15 05:17:58;;;;;;;4.03;2.60;;;;;;;;;;4999359;28;20113;-76
2021/10/15 05:20:23;;;;;;;4.32;2.72;;;;;;;;;;5005349;28;20034;-78
2021/10/15 05:22:48;;;;;;;5.22;3.00;;;;;;;;;;5003519;28;20440;-78
2021/10/15 05:25:13;;;;;;;5.22;2.85;;;;;;;;;;5005263;28;20593;-71
2021/10/15 05:27:39;;;;;;;5.65;2.72;;;;;;;;;;4998403;28;20421;-72
2021/10/15 05:30:05;;;;;;;4.63;2.90;;;;;;;;;;4996848;28;20050;-72
2021/10/15 05:32:30;;;;;;;6.90;3.15;;;;;;;;;;4993117;28;20058;-72
2021/10/15 05:34:56;;;;;;;9.30;5.25;;;;;;;;;;4995589;28;20066;-73
2021/10/15 05:37:22;;;;;;;5.90;3.05;;;;;;;;;;5004609;28;20034;-72
2021/10/15 05:39:47;;;;;;;5.28;2.80;;;;;;;;;;5002858;28;20095;-71
2021/10/15 05:42:12;;;;;;;7.07;3.00;;;;;;;;;;4997063;28;20109;-72
2021/10/15 05:44:37;;;;;;;5.65;2.90;;;;;;;;;;4995453;28;20030;-72
2021/10/15 05:47:06;;;;;;;7.10;2.90;;;;;;;;;;4994152;28;20461;-73
2021/10/15 05:49:36;;;;;;;6.05;2.88;;;;;;;;;;4992291;28;20057;-72
2021/10/15 05:52:07;;;;;;;6.72;3.33;;;;;;;;;;4998556;28;20351;-72
2021/10/15 05:59:53;;;;;;;4.15;2.30;;;;;;;;;;4994560;28;20567;-71
2021/10/15 06:02:18;;;;;;;4.25;2.17;;;;;;;;;;5001563;28;20070;-72
2021/10/15 06:15:27;;;;;;;5.93;2.58;;;;;;;;;;4996576;28;20044;-71
2021/10/15 06:17:53;;;;;;;5.60;2.60;;;;;;;;;;4991811;28;20035;-72
2021/10/15 06:20:19;;;;;;;9.50;2.50;;;;;;;;;;5006490;28;20029;-72
2021/10/15 06:22:44;;;;;;;5.15;2.67;;;;;;;;;;5007105;28;20528;-72
2021/10/15 06:25:09;;;;;;;4.47;2.58;;;;;;;;;;4999797;28;20022;-71
2021/10/15 06:27:34;;;;;;;7.43;3.00;;;;;;;;;;4990560;28;20030;-70
2021/10/15 06:30:00;;;;;;;5.80;2.50;;;;;;;;;;4990056;28;20022;-71
2021/10/15 06:32:25;;;;;;;4.80;2.60;;;;;;;;;;5003064;28;20554;-71
2021/10/15 06:34:50;;;;;;;5.55;2.53;;;;;;;;;;5006680;28;20104;-71
2021/10/15 06:37:17;;;;;;;5.40;2.13;;;;;;;;;;5008888;28;20088;-71
2021/10/15 06:39:42;;;;;;;7.53;2.35;;;;;;;;;;5009262;28;20392;-71
2021/10/15 06:42:07;;;;;;;3.63;1.73;;;;;;;;;;5009315;28;20029;-72
2021/10/15 06:44:33;;;;;;;3.78;2.22;;;;;;;;;;5008544;28;20057;-71
2021/10/15 06:46:58;;;;;;;4.88;1.90;;;;;;;;;;5009163;28;20022;-71
2021/10/15 06:49:23;;;;;;;4.35;1.60;;;;;;;;;;4997042;28;20030;-71
2021/10/15 06:51:48;;;;;;;2.63;1.50;;;;;;;;;;4990134;28;20378;-71
2021/10/15 06:54:14;;;;;;;3.35;1.75;;;;;;;;;;4989839;28;20030;-72
2021/10/15 06:56:39;;;;;;;2.20;1.48;;;;;;;;;;4989903;28;20042;-71
2021/10/15 06:59:04;;;;;;;2.45;1.58;;;;;;;;;;4989854;28;20033;-71
2021/10/15 07:01:30;;;;;;;2.22;1.50;;;;;;;;;;4990164;28;20037;-72
2021/10/15 07:03:56;;;;;;;2.55;1.58;;;;;;;;;;4990117;28;20101;-72
2021/10/15 07:06:21;;;;;;;3.17;1.70;;;;;;;;;;4995513;28;20030;-71
2021/10/15 07:08:46;;;;;;;4.63;1.65;;;;;;;;;;4989833;28;20077;-71
2021/10/15 07:11:13;;;;;;;3.60;1.58;;;;;;;;;;4989934;28;20034;-72
2021/10/15 07:13:38;;;;;;;2.97;1.40;;;;;;;;;;5005481;28;20052;-71
2021/10/15 07:16:03;;;;;;;3.17;1.65;;;;;;;;;;4997505;28;20074;-73
2021/10/15 07:18:28;;;;;;;4.82;1.88;;;;;;;;;;5008385;28;20461;-71
2021/10/15 07:20:54;;;;;;;2.90;1.50;;;;;;;;;;4992778;28;20088;-71
2021/10/15 07:23:19;;;;;;;2.92;1.75;;;;;;;;;;5002778;28;20548;-71
2021/10/15 07:25:45;;;;;;;4.03;1.80;;;;;;;;;;5006524;28;20034;-72
2021/10/15 07:28:11;;;;;;;3.13;1.30;;;;;;;;;;4996465;28;20125;-70
2021/10/15 07:30:36;;;;;;;2.92;1.58;;;;;;;;;;4996171;28;20027;-70
2021/10/15 07:33:01;;;;;;;3.70;1.60;;;;;;;;;;4996537;28;20026;-72
2021/10/15 07:35:26;;;;;;;3.17;1.48;;;;;;;;;;4996118;28;20026;-71
2021/10/15 07:37:52;;;;;;;3.03;1.63;;;;;;;;;;4995765;28;20029;-71
2021/10/15 07:40:17;;;;;;;3.22;1.48;;;;;;;;;;5000598;28;20057;-71
2021/10/15 07:42:42;;;;;;;2.40;1.42;;;;;;;;;;5001932;28;20025;-70
2021/10/15 07:45:08;;;;;;;2.88;1.58;;;;;;;;;;5012191;28;20105;-71
2021/10/15 07:47:33;;;;;;;3.17;1.70;;;;;;;;;;4998693;28;20030;-72
2021/10/15 07:49:58;;;;;;;2.58;1.48;;;;;;;;;;4995989;28;20011;-72
2021/10/15 07:52:23;;;;;;;3.65;1.80;;;;;;;;;;4999467;28;20019;-72
2021/10/15 07:54:49;;;;;;;3.50;2.10;;;;;;;;;;4996084;28;20030;-72
2021/10/15 07:57:14;;;;;;;2.92;1.45;;;;;;;;;;4995983;28;20026;-72
2021/10/15 07:59:39;;;;;;;3.25;1.92;;;;;;;;;;4995525;28;20097;-71
2021/10/15 08:02:05;;;;;;;3.65;1.77;;;;;;;;;;5008142;28;20521;-72
2021/10/15 08:04:30;;;;;;;2.72;1.60;;;;;;;;;;5008765;28;20088;-72
2021/10/15 08:06:55;;;;;;;2.47;1.80;;;;;;;;;;5004500;28;20060;-71
2021/10/15 08:09:21;;;;;;;2.78;1.55;;;;;;;;;;5002231;28;20068;-70
2021/10/15 08:11:48;;;;;;;3.88;2.00;;;;;;;;;;5000282;28;20112;-70
2021/10/15 08:14:13;;;;;;;3.63;1.80;;;;;;;;;;5000297;28;20038;-71
2021/10/15 08:16:38;;;;;;;3.88;1.95;;;;;;;;;;5004601;28;20038;-72
2021/10/15 08:19:03;;;;;;;3.30;1.60;;;;;;;;;;5004096;28;20037;-71
2021/10/15 08:21:28;;;;;;;2.53;1.70;;;;;;;;;;4998670;28;20034;-71
2021/10/15 08:23:53;;;;;;;3.15;1.48;;;;;;;;;;4995709;28;20069;-71
2021/10/15 08:26:19;;;;;;;3.42;1.58;;;;;;;;;;4999710;28;20028;-71
2021/10/15 08:28:45;;;;;;;2.78;1.50;;;;;;;;;;5000259;28;20022;-71
2021/10/15 08:31:10;;;;;;;2.15;1.30;;;;;;;;;;5004291;28;20096;-72
2021/10/15 08:33:35;;;;;;;1.70;1.27;;;;;;;;;;5002815;28;20033;-72
2021/10/15 08:36:07;;;;;;;2.00;1.38;;;;;;;;;;4992760;28;20034;-73
2021/10/15 08:38:32;;;;;;;4.80;1.60;;;;;;;;;;5001614;28;20030;-71
2021/10/15 08:40:57;;;;;;;2.58;1.50;;;;;;;;;;4993359;28;20033;-73
2021/10/15 08:43:36;;;;;;;2.25;1.38;;;;;;;;;;4998211;28;20089;-72
2021/10/15 08:46:02;;;;;;;5.20;1.73;;;;;;;;;;4993010;28;20478;-71
2021/10/15 08:48:27;;;;;;;3.50;1.52;;;;;;;;;;4999462;28;20429;-72
2021/10/15 08:50:52;;;;;;;3.95;1.80;;;;;;;;;;4997850;28;20030;-71
2021/10/15 08:53:18;;;;;;;2.50;1.20;;;;;;;;;;4998302;28;20106;-71
2021/10/15 08:55:43;;;;;;;3.17;1.35;;;;;;;;;;4993610;28;20382;-61
2021/10/15 08:58:09;;;;;;;2.42;1.20;;;;;;;;;;4994382;28;20054;-62
2021/10/15 09:00:35;;;;;;;1.70;0.98;;;;;;;;;;4996228;28;20054;-61
2021/10/15 09:03:15;;;;;;;2.17;1.35;;;;;;;;;;4993814;28;20038;-61
2021/10/15 09:05:41;;;;;;;2.00;1.08;;;;;;;;;;5000287;28;20343;-62
2021/10/15 09:08:07;;;;;;;2.80;1.40;;;;;;;;;;5004663;28;20548;-62
2021/10/15 09:10:32;;;;;;;3.00;1.35;;;;;;;;;;5010629;28;20041;-63
2021/10/15 09:13:07;;;;;;;2.10;1.20;;;;;;;;;;5004262;28;20018;-62
2021/10/15 09:15:33;;;;;;;2.35;1.10;;;;;;;;;;5004490;28;20049;-62
2021/10/15 09:18:08;;;;;;;2.65;1.20;;;;;;;;;;5010371;28;20033;-62
2021/10/15 09:20:35;;;;;;;1.58;1.17;;;;;;;;;;5006931;28;20045;-62
2021/10/15 09:23:00;;;;;;;1.45;1.08;;;;;;;;;;4999669;28;20117;-62
2021/10/15 09:25:33;;;;;;;2.92;1.50;;;;;;;;;;4998913;28;20101;-62
2021/10/15 09:27:58;;;;;;;5.70;1.50;;;;;;;;;;4996212;28;20033;-62
2021/10/15 09:30:25;;;;;;;2.75;1.30;;;;;;;;;;5002433;28;20022;-62
2021/10/15 09:32:52;;;;;;;1.90;1.35;;;;;;;;;;4991466;28;20049;-62
2021/10/15 09:35:21;;;;;;;3.15;1.90;;;;;;;;;;4996964;28;20066;-61
2021/10/15 09:37:47;;;;;;;3.28;1.70;;;;;;;;;;4994845;28;20015;-62
2021/10/15 09:40:14;;;;;;;4.78;1.90;;;;;;;;;;5002175;28;20396;-62
2021/10/15 09:42:47;;;;;;;2.97;1.77;;;;;;;;;;5009751;28;20351;-62
2021/10/15 09:45:16;;;;;;;3.30;2.03;;;;;;;;;;5003479;28;20033;-63
2021/10/15 09:47:55;;;;;;;3.35;1.80;;;;;;;;;;4994130;28;20470;-62
2021/10/15 09:50:21;;;;;;;3.22;1.67;;;;;;;;;;4990831;28;20038;-61
2021/10/15 09:52:51;;;;;;;3.30;1.70;;;;;;;;;;4995997;28;20026;-62
2021/10/15 09:55:16;;;;;;;;;;;;;;;;;;4993248;28;20027;-62
2021/10/15 09:57:42;;;;;;;3.67;1.80;;;;;;;;;;4993760;28;20031;-62
2021/10/15 10:00:09;;;;;;;2.92;1.70;;;;;;;;;;4990949;28;20339;-62
2021/10/15 10:02:35;;;;;;;4.68;2.38;;;;;;;;;;4990807;28;20054;-63
2021/10/15 10:05:01;;;;;;;4.00;2.05;;;;;;;;;;4990993;28;20064;-61
2021/10/15 10:07:26;;;;;;;2.80;1.75;;;;;;;;;;5009575;28;20068;-62
2021/10/15 10:09:52;;;;;;;2.55;1.52;;;;;;;;;;5009436;28;20040;-62
2021/10/15 10:12:17;;;;;;;2.45;1.42;;;;;;;;;;4991687;28;20027;-62
2021/10/15 10:14:42;;;;;;;3.97;1.83;;;;;;;;;;4990623;28;20027;-62
2021/10/15 10:17:10;;;;;;;3.78;1.73;;;;;;;;;;5005517;28;20172;-61
2021/10/15 10:19:37;;;;;;;3.15;1.63;;;;;;;;;;5004130;28;20037;-63
2021/10/15 10:22:03;;;;;;;1.80;1.20;;;;;;;;;;5009679;28;20022;-62
2021/10/15 10:24:31;;;;;;;2.70;1.50;;;;;;;;;;5008898;28;20148;-61
2021/10/15 10:26:57;;;;;;;3.35;1.77;;;;;;;;;;5009498;28;20021;-62
2021/10/15 10:29:22;;;;;;;3.60;1.80;;;;;;;;;;5009233;28;20037;-61
2021/10/15 10:31:53;;;;;;;3.85;2.00;;;;;;;;;;5009069;28;20549;-62
2021/10/15 10:34:36;;;;;;;4.20;1.70;;;;;;;;;;4993240;28;20022;-61
2021/10/15 10:37:06;;;;;;;3.13;1.52;;;;;;;;;;4989859;28;20506;-61
2021/10/15 10:39:32;;;;;;;3.20;1.75;;;;;;;;;;4989891;28;20018;-61
2021/10/15 10:42:03;;;;;;;1.85;1.30;;;;;;;;;;4990275;28;20018;-61
2021/10/15 10:44:29;;;;;;;2.40;1.48;;;;;;;;;;4990295;28;20038;-61
2021/10/15 10:47:05;;;;;;;3.30;1.33;;;;;;;;;;4993117;28;20022;-61
2021/10/15 10:49:30;;;;;;;3.47;1.73;;;;;;;;;;4990486;28;20073;-60
2021/10/15 10:52:05;;;;;;;2.83;1.83;;;;;;;;;;4996532;28;20014;-61
2021/10/15 10:54:31;;;;;;;2.42;1.58;;;;;;;;;;5001883;28;20026;-61
2021/10/15 10:56:56;;;;;;;2.90;1.60;;;;;;;;;;4995039;28;20045;-61
2021/10/15 10:59:28;;;;;;;4.13;1.80;;;;;;;;;;4999134;28;20116;-62
2021/10/15 11:01:54;;;;;;;3.25;1.80;;;;;;;;;;4990997;28;20262;-61
2021/10/15 11:04:35;;;;;;;3.45;2.10;;;;;;;;;;4989684;28;20068;-61
2021/10/15 11:07:02;;;;;;;2.80;1.70;;;;;;;;;;4996288;28;20038;-62
2021/10/15 11:09:34;;;;;;;3.28;1.90;;;;;;;;;;4989586;28;20105;-63
2021/10/15 11:12:00;;;;;;;3.40;1.88;;;;;;;;;;4989846;28;20030;-62
2021/10/15 11:14:57;;;;;;;3.42;1.77;;;;;;;;;;4993829;28;20500;-63
2021/10/15 11:17:28;;;;;;;2.78;1.83;;;;;;;;;;4989552;28;20502;-61
2021/10/15 11:20:05;;;;;;;3.28;1.50;;;;;;;;;;4995179;28;20034;-62
2021/10/15 11:22:31;;;;;;;2.95;1.83;;;;;;;;;;5001191;28;20029;-62
2021/10/15 11:24:56;;;;;;;3.20;1.90;;;;;;;;;;5008307;28;20029;-61
2021/10/15 11:27:21;;;;;;;4.72;1.83;;;;;;;;;;5008504;28;20267;-61
2021/10/15 11:29:51;;;;;;;3.78;1.80;;;;;;;;;;5008424;28;20369;-61
2021/10/15 11:32:30;;;;;;;3.25;1.90;;;;;;;;;;5008264;28;20198;-62
2021/10/15 11:35:04;;;;;;;3.38;2.00;;;;;;;;;;5008283;28;20115;-61
2021/10/15 11:37:41;;;;;;;3.60;1.90;;;;;;;;;;5008246;28;20034;-62
2021/10/15 11:40:13;;;;;;;3.08;1.80;;;;;;;;;;5007860;28;20030;-63
2021/10/15 11:42:38;;;;;;;4.50;1.83;;;;;;;;;;4999739;28;20243;-63
2021/10/15 11:45:19;;;;;;;3.67;1.70;;;;;;;;;;4994227;28;20494;-62
2021/10/15 11:47:54;;;;;;;2.60;1.80;;;;;;;;;;4997305;28;20022;-61
2021/10/15 11:50:30;;;;;;;2.95;1.77;;;;;;;;;;5004894;28;20030;-63
2021/10/15 11:52:55;;;;;;;2.20;1.42;;;;;;;;;;4991123;28;20173;-62
2021/10/15 11:55:21;;;;;;;3.53;2.10;;;;;;;;;;5001424;28;20165;-64
2021/10/15 11:57:50;;;;;;;3.70;2.10;;;;;;;;;;4989644;28;20026;-63
2021/10/15 12:00:16;;;;;;;3.63;2.25;;;;;;;;;;4991735;28;20095;-62
2021/10/15 12:02:46;;;;;;;4.15;2.33;;;;;;;;;;4992408;28;20039;-63
2021/10/15 12:05:11;;;;;;;2.90;1.60;;;;;;;;;;4989037;28;20462;-64
2021/10/15 12:07:36;;;;;;;3.80;2.33;;;;;;;;;;4992785;28;20113;-63
2021/10/15 12:10:01;;;;;;;3.88;2.10;;;;;;;;;;5002150;28;20029;-62
2021/10/15 12:12:26;;;;;;;4.10;2.47;;;;;;;;;;5004334;28;20026;-62
2021/10/15 12:14:52;;;;;;;5.43;2.40;;;;;;;;;;5001522;28;20041;-62
2021/10/15 12:17:18;;;;;;;3.42;2.33;;;;;;;;;;4995734;28;20038;-63
2021/10/15 12:19:46;;;;;;;4.03;2.47;;;;;;;;;;5002873;28;20034;-63
2021/10/15 12:22:13;;;;;;;4.95;2.10;;;;;;;;;;4996218;28;20425;-63
2021/10/15 12:24:40;;;;;;;3.85;2.15;;;;;;;;;;5003549;28;20026;-63
2021/10/15 12:27:13;;;;;;;3.67;2.17;;;;;;;;;;5002702;28;20025;-62
2021/10/15 12:29:41;;;;;;;3.47;2.10;;;;;;;;;;5008139;28;20468;-63
2021/10/15 12:32:16;;;;;;;3.28;2.10;;;;;;;;;;4992762;28;20034;-65
2021/10/15 12:34:58;;;;;;;3.70;2.10;;;;;;;;;;4995644;28;20239;-62
2021/10/15 12:37:47;;;;;;;4.90;2.08;;;;;;;;;;4992454;28;20045;-62
2021/10/15 12:40:21;;;;;;;2.90;1.80;;;;;;;;;;5027567;28;20420;-61
2021/10/15 12:43:01;;;;;;;3.33;2.10;;;;;;;;;;5027940;28;20041;-63
2021/10/15 12:45:26;;;;;;;;;;;;;;;;;;5027809;28;20116;-63
2021/10/15 12:47:56;;;;;;;3.85;1.95;;;;;;;;;;5027355;28;20250;-63
2021/10/15 12:50:21;;;;;;;4.43;1.80;;;;;;;;;;5026628;28;20327;-63
2021/10/15 12:52:46;;;;;;;3.58;1.85;;;;;;;;;;5034094;28;20028;-64
2021/10/15 12:55:15;;;;;;;3.70;2.30;;;;;;;;;;5025942;28;20029;-64
2021/10/15 12:57:40;;;;;;;2.88;1.70;;;;;;;;;;5027590;28;20052;-62
2021/10/15 13:00:07;;;;;;;3.35;1.70;;;;;;;;;;5027148;28;20199;-62
2021/10/15 13:02:32;;;;;;;3.47;1.88;;;;;;;;;;5027196;28;20034;-62
2021/10/15 13:04:58;;;;;;;2.97;2.00;;;;;;;;;;5027152;28;20034;-64
2021/10/15 13:07:23;;;;;;;3.13;2.10;;;;;;;;;;5027127;28;20036;-62
2021/10/15 13:09:48;;;;;;;4.53;1.83;;;;;;;;;;5028708;28;20038;-63
2021/10/15 13:12:13;;;;;;;2.40;1.70;;;;;;;;;;5025866;28;20014;-62
2021/10/15 13:14:38;;;;;;;3.35;1.70;;;;;;;;;;5027078;28;20780;-63
2021/10/15 13:17:04;;;;;;;2.20;1.60;;;;;;;;;;5014831;28;20056;-63
2021/10/15 13:19:29;;;;;;;4.15;1.90;;;;;;;;;;4990869;28;20266;-62
2021/10/15 13:21:54;;;;;;;2.63;1.93;;;;;;;;;;4991207;28;20126;-63
2021/10/15 13:24:19;;;;;;;2.60;1.80;;;;;;;;;;4998493;28;20781;-62
2021/10/15 13:26:44;;;;;;;3.92;1.80;;;;;;;;;;4996113;28;20361;-65
2021/10/15 13:29:09;;;;;;;3.00;2.08;;;;;;;;;;4991738;28;20374;-62
2021/10/15 13:31:35;;;;;;;3.92;2.15;;;;;;;;;;4998876;28;20465;-63
2021/10/15 13:34:01;;;;;;;2.83;1.70;;;;;;;;;;4999521;28;20062;-63
2021/10/15 13:36:26;;;;;;;3.20;1.80;;;;;;;;;;4999136;28;20358;-63
2021/10/15 13:38:52;;;;;;;4.72;2.03;;;;;;;;;;5003100;28;20541;-64
2021/10/15 13:41:21;;;;;;;3.65;1.95;;;;;;;;;;4997294;28;20064;-63
2021/10/15 13:46:28;;;;;;;3.13;1.80;;;;;;;;;;4993020;28;20385;-62
2021/10/15 13:51:37;;;;;;;3.38;1.80;;;;;;;;;;5005240;28;20121;-64
2021/10/15 13:54:03;;;;;;;3.88;1.92;;;;;;;;;;5009908;28;20481;-62
2021/10/15 13:56:29;;;;;;;3.10;1.85;;;;;;;;;;4995370;28;20034;-63
2021/10/15 13:59:03;;;;;;;5.43;1.83;;;;;;;;;;4991362;28;20019;-62
2021/10/15 14:01:34;;;;;;;4.60;1.85;;;;;;;;;;4993716;28;20145;-63
2021/10/15 14:06:24;;;;;;;3.00;1.90;;;;;;;;;;4990796;28;20772;-63
2021/10/15 14:08:50;;;;;;;2.50;1.90;;;;;;;;;;4990945;28;20026;-64
2021/10/15 14:11:17;;;;;;;2.53;1.88;;;;;;;;;;4990447;28;20033;-62
2021/10/15 14:13:42;;;;;;;1.95;1.50;;;;;;;;;;4997207;28;20030;-63
2021/10/15 14:16:08;;;;;;;3.97;1.80;;;;;;;;;;4990334;28;20030;-63
2021/10/15 14:18:33;;;;;;;3.90;1.77;;;;;;;;;;4990572;28;20614;-63
2021/10/15 14:20:58;;;;;;;3.47;2.00;;;;;;;;;;4990413;28;20254;-62
2021/10/15 14:23:24;;;;;;;3.63;2.10;;;;;;;;;;4994874;28;20297;-63
2021/10/15 14:25:49;;;;;;;3.78;1.90;;;;;;;;;;4992402;28;20027;-64
2021/10/15 14:28:15;;;;;;;3.58;1.70;;;;;;;;;;4990612;28;20046;-62
2021/10/15 14:30:40;;;;;;;2.80;1.92;;;;;;;;;;4989190;28;20379;-62
2021/10/15 14:33:05;;;;;;;3.00;1.80;;;;;;;;;;5003166;28;20037;-62
2021/10/15 14:35:31;;;;;;;3.60;1.65;;;;;;;;;;5002123;28;20116;-62
2021/10/15 14:37:56;;;;;;;4.38;2.00;;;;;;;;;;4995715;28;20050;-63
2021/10/15 14:40:21;;;;;;;3.00;1.55;;;;;;;;;;4996296;28;20053;-62
2021/10/15 14:42:46;;;;;;;3.83;1.85;;;;;;;;;;4999758;28;20034;-62
2021/10/15 14:45:12;;;;;;;3.42;1.92;;;;;;;;;;5001567;28;20088;-63
2021/10/15 14:47:38;;;;;;;3.58;1.83;;;;;;;;;;5001149;28;20030;-62
2021/10/15 14:50:03;;;;;;;3.75;1.83;;;;;;;;;;5001809;28;20396;-62
2021/10/15 14:52:28;;;;;;;2.17;1.58;;;;;;;;;;4994843;28;20105;-62
2021/10/15 14:54:54;;;;;;;2.83;1.35;;;;;;;;;;5007880;28;20115;-62
2021/10/15 14:57:19;;;;;;;2.77;1.57;;;;;;;;;;4995430;28;20539;-61
2021/10/15 14:59:44;;;;;;;3.10;1.60;;;;;;;;;;4993729;28;20300;-63
2021/10/15 15:02:10;;;;;;;2.80;1.60;;;;;;;;;;4993105;28;20034;-63